Terminal Aerodrome Forecast
Issued by NWS

Home | Current Version | Previous Version | Text Only | Print | Product List | Glossary On
Versions: 1 2 3 4 5 6 7 8 9 10 11 12 13 14 15 16 17 18 19 20 21 22 23 24 25 26 27 28 29
000
FTUS46 KSGX 311200 AAB
TAFSAN
TAF AMD
KSAN 311232Z 3113/0118 00000KT P6SM BKN010
     FM311630 VRB03KT P6SM SCT011
     FM311900 29009KT P6SM SCT200
     FM010100 VRB05KT P6SM SCT200
     FM010700 20003KT P6SM BKN009
     FM011630 23006KT P6SM SCT010=

USA.gov is the U.S. government's official web portal to all federal, state and local government web resources and services.